sensor_id;sensor_type;location;lat;lon;timestamp;temperature;humidity
6443;DHT22;3254;47.372;8.512;2023-02-01T00:01:49;3.30;1.00
6443;DHT22;3254;47.372;8.512;2023-02-01T00:04:14;3.40;1.00
6443;DHT22;3254;47.372;8.512;2023-02-01T00:06:40;3.50;1.00
6443;DHT22;3254;47.372;8.512;2023-02-01T00:09:06;3.50;1.00
6443;DHT22;3254;47.372;8.512;2023-02-01T00:11:31;3.40;1.00
6443;DHT22;3254;47.372;8.512;2023-02-01T00:13:57;3.30;1.00
6443;DHT22;3254;47.372;8.512;2023-02-01T00:16:25;3.30;1.00
6443;DHT22;3254;47.372;8.512;2023-02-01T00:19:04;3.30;1.00
6443;DHT22;3254;47.372;8.512;2023-02-01T00:21:30;3.30;1.00
6443;DHT22;3254;47.372;8.512;2023-02-01T00:23:56;3.20;1.00
6443;DHT22;3254;47.372;8.512;2023-02-01T00:26:34;3.20;1.00
6443;DHT22;3254;47.372;8.512;2023-02-01T00:29:01;3.10;1.00
6443;DHT22;3254;47.372;8.512;2023-02-01T00:31:28;3.00;1.00
6443;DHT22;3254;47.372;8.512;2023-02-01T00:33:55;2.70;1.00
6443;DHT22;3254;47.372;8.512;2023-02-01T00:36:21;2.60;1.00
6443;DHT22;3254;47.372;8.512;2023-02-01T00:38:46;2.40;1.00
6443;DHT22;3254;47.372;8.512;2023-02-01T00:41:14;2.40;1.00
6443;DHT22;3254;47.372;8.512;2023-02-01T00:43:41;2.60;1.00
6443;DHT22;3254;47.372;8.512;2023-02-01T00:46:07;2.60;1.00
6443;DHT22;3254;47.372;8.512;2023-02-01T00:48:34;2.70;1.00
6443;DHT22;3254;47.372;8.512;2023-02-01T00:51:03;2.70;1.00
6443;DHT22;3254;47.372;8.512;2023-02-01T00:53:29;2.60;1.00
6443;DHT22;3254;47.372;8.512;2023-02-01T00:55:55;2.40;1.00
6443;DHT22;3254;47.372;8.512;2023-02-01T00:58:21;2.40;1.00
6443;DHT22;3254;47.372;8.512;2023-02-01T01:00:49;2.30;1.00
6443;DHT22;3254;47.372;8.512;2023-02-01T01:03:15;2.30;1.00
6443;DHT22;3254;47.372;8.512;2023-02-01T01:05:47;2.40;1.00
6443;DHT22;3254;47.372;8.512;2023-02-01T01:08:14;2.40;1.00
6443;DHT22;3254;47.372;8.512;2023-02-01T01:10:40;2.50;1.00
6443;DHT22;3254;47.372;8.512;2023-02-01T01:13:07;2.50;1.00
6443;DHT22;3254;47.372;8.512;2023-02-01T01:15:40;2.50;1.00
6443;DHT22;3254;47.372;8.512;2023-02-01T01:18:07;2.60;1.00
6443;DHT22;3254;47.372;8.512;2023-02-01T01:20:38;2.70;1.00
6443;DHT22;3254;47.372;8.512;2023-02-01T01:23:06;2.40;1.00
6443;DHT22;3254;47.372;8.512;2023-02-01T01:25:36;2.30;1.00
6443;DHT22;3254;47.372;8.512;2023-02-01T01:28:08;2.10;1.00
6443;DHT22;3254;47.372;8.512;2023-02-01T01:30:37;2.20;1.00
6443;DHT22;3254;47.372;8.512;2023-02-01T01:33:02;2.40;1.00
6443;DHT22;3254;47.372;8.512;2023-02-01T01:35:29;2.40;1.00
6443;DHT22;3254;47.372;8.512;2023-02-01T01:37:57;2.30;1.00
6443;DHT22;3254;47.372;8.512;2023-02-01T01:40:23;2.40;1.00
6443;DHT22;3254;47.372;8.512;2023-02-01T01:42:49;2.40;1.00
6443;DHT22;3254;47.372;8.512;2023-02-01T01:47:50;2.40;1.00
6443;DHT22;3254;47.372;8.512;2023-02-01T01:50:19;2.40;1.00
6443;DHT22;3254;47.372;8.512;2023-02-01T01:52:51;2.40;1.00
6443;DHT22;3254;47.372;8.512;2023-02-01T01:55:20;2.40;1.00
6443;DHT22;3254;47.372;8.512;2023-02-01T01:57:52;2.30;1.00
6443;DHT22;3254;47.372;8.512;2023-02-01T02:00:20;2.40;1.00
6443;DHT22;3254;47.372;8.512;2023-02-01T02:02:48;2.30;1.00
6443;DHT22;3254;47.372;8.512;2023-02-01T02:05:17;2.30;1.00
6443;DHT22;3254;47.372;8.512;2023-02-01T02:07:48;2.30;1.00
6443;DHT22;3254;47.372;8.512;2023-02-01T02:10:15;2.20;1.00
6443;DHT22;3254;47.372;8.512;2023-02-01T02:12:44;2.20;1.00
6443;DHT22;3254;47.372;8.512;2023-02-01T02:15:13;2.10;1.00
6443;DHT22;3254;47.372;8.512;2023-02-01T02:18:00;2.00;1.00
6443;DHT22;3254;47.372;8.512;2023-02-01T02:20:40;2.00;1.00
6443;DHT22;3254;47.372;8.512;2023-02-01T02:26:22;1.90;1.00
6443;DHT22;3254;47.372;8.512;2023-02-01T02:34:38;1.90;1.00
6443;DHT22;3254;47.372;8.512;2023-02-01T02:37:31;1.80;1.00
6443;DHT22;3254;47.372;8.512;2023-02-01T02:40:06;1.90;1.00
6443;DHT22;3254;47.372;8.512;2023-02-01T02:49:11;1.30;1.00
6443;DHT22;3254;47.372;8.512;2023-02-01T02:51:46;1.20;1.00
6443;DHT22;3254;47.372;8.512;2023-02-01T02:54:36;1.10;1.00
6443;DHT22;3254;47.372;8.512;2023-02-01T02:57:37;1.00;1.00
6443;DHT22;3254;47.372;8.512;2023-02-01T03:00:28;1.00;1.00
6443;DHT22;3254;47.372;8.512;2023-02-01T03:03:12;1.10;1.00
6443;DHT22;3254;47.372;8.512;2023-02-01T03:05:57;1.20;1.00
6443;DHT22;3254;47.372;8.512;2023-02-01T03:08:24;1.30;1.00
6443;DHT22;3254;47.372;8.512;2023-02-01T03:11:07;1.40;1.00
6443;DHT22;3254;47.372;8.512;2023-02-01T03:18:42;1.20;1.00
6443;DHT22;3254;47.372;8.512;2023-02-01T03:21:14;1.10;1.00
6443;DHT22;3254;47.372;8.512;2023-02-01T03:23:42;1.00;1.00
6443;DHT22;3254;47.372;8.512;2023-02-01T03:26:13;1.00;1.00
6443;DHT22;3254;47.372;8.512;2023-02-01T03:28:44;0.90;1.00
6443;DHT22;3254;47.372;8.512;2023-02-01T03:31:13;0.80;1.00
6443;DHT22;3254;47.372;8.512;2023-02-01T03:33:39;0.80;1.00
6443;DHT22;3254;47.372;8.512;2023-02-01T03:41:35;0.70;1.00
6443;DHT22;3254;47.372;8.512;2023-02-01T03:44:29;0.80;1.00
6443;DHT22;3254;47.372;8.512;2023-02-01T03:47:00;0.80;1.00
6443;DHT22;3254;47.372;8.512;2023-02-01T03:49:43;0.90;1.00
6443;DHT22;3254;47.372;8.512;2023-02-01T03:52:13;1.00;1.00
6443;DHT22;3254;47.372;8.512;2023-02-01T03:54:39;1.00;1.00
6443;DHT22;3254;47.372;8.512;2023-02-01T03:57:09;0.90;1.00
6443;DHT22;3254;47.372;8.512;2023-02-01T03:59:40;0.80;1.00
6443;DHT22;3254;47.372;8.512;2023-02-01T04:02:07;1.00;1.00
6443;DHT22;3254;47.372;8.512;2023-02-01T04:04:34;1.00;1.00
6443;DHT22;3254;47.372;8.512;2023-02-01T04:07:01;1.20;1.00
6443;DHT22;3254;47.372;8.512;2023-02-01T04:09:26;1.10;1.00
6443;DHT22;3254;47.372;8.512;2023-02-01T04:11:52;1.10;1.00
6443;DHT22;3254;47.372;8.512;2023-02-01T04:14:18;1.30;1.00
6443;DHT22;3254;47.372;8.512;2023-02-01T04:16:44;1.30;1.00
6443;DHT22;3254;47.372;8.512;2023-02-01T04:19:11;1.60;1.00
6443;DHT22;3254;47.372;8.512;2023-02-01T04:21:37;1.50;1.00
6443;DHT22;3254;47.372;8.512;2023-02-01T04:24:04;1.50;1.00
6443;DHT22;3254;47.372;8.512;2023-02-01T04:26:33;1.50;1.00
6443;DHT22;3254;47.372;8.512;2023-02-01T04:28:58;1.60;1.00
6443;DHT22;3254;47.372;8.512;2023-02-01T04:31:24;1.50;1.00
6443;DHT22;3254;47.372;8.512;2023-02-01T04:33:55;1.50;1.00
6443;DHT22;3254;47.372;8.512;2023-02-01T04:36:23;1.50;1.00
6443;DHT22;3254;47.372;8.512;2023-02-01T04:38:52;1.50;1.00
6443;DHT22;3254;47.372;8.512;2023-02-01T04:41:19;1.50;1.00
6443;DHT22;3254;47.372;8.512;2023-02-01T04:43:46;1.40;1.00
6443;DHT22;3254;47.372;8.512;2023-02-01T04:46:12;1.50;1.00
6443;DHT22;3254;47.372;8.512;2023-02-01T04:48:38;1.60;1.00
6443;DHT22;3254;47.372;8.512;2023-02-01T04:51:03;1.60;1.00
6443;DHT22;3254;47.372;8.512;2023-02-01T04:53:29;1.80;1.00
6443;DHT22;3254;47.372;8.512;2023-02-01T04:55:56;1.90;1.00
6443;DHT22;3254;47.372;8.512;2023-02-01T04:58:23;2.30;1.00
6443;DHT22;3254;47.372;8.512;2023-02-01T05:00:50;2.50;1.00
6443;DHT22;3254;47.372;8.512;2023-02-01T05:03:17;2.70;1.00
6443;DHT22;3254;47.372;8.512;2023-02-01T05:05:43;2.70;1.00
6443;DHT22;3254;47.372;8.512;2023-02-01T05:08:09;2.70;1.00
6443;DHT22;3254;47.372;8.512;2023-02-01T05:10:35;2.80;1.00
6443;DHT22;3254;47.372;8.512;2023-02-01T05:13:01;2.80;1.00
6443;DHT22;3254;47.372;8.512;2023-02-01T05:15:45;2.80;1.00
6443;DHT22;3254;47.372;8.512;2023-02-01T05:18:11;2.90;1.00
6443;DHT22;3254;47.372;8.512;2023-02-01T05:20:37;2.80;1.00
6443;DHT22;3254;47.372;8.512;2023-02-01T05:23:03;2.80;1.00
6443;DHT22;3254;47.372;8.512;2023-02-01T05:25:28;2.70;1.00
6443;DHT22;3254;47.372;8.512;2023-02-01T05:27:54;2.80;1.00
6443;DHT22;3254;47.372;8.512;2023-02-01T05:30:20;2.80;1.00
6443;DHT22;3254;47.372;8.512;2023-02-01T05:32:48;2.80;1.00
6443;DHT22;3254;47.372;8.512;2023-02-01T05:35:14;2.80;1.00
6443;DHT22;3254;47.372;8.512;2023-02-01T05:37:39;2.90;1.00
6443;DHT22;3254;47.372;8.512;2023-02-01T05:40:06;2.80;1.00
6443;DHT22;3254;47.372;8.512;2023-02-01T05:42:32;2.90;1.00
6443;DHT22;3254;47.372;8.512;2023-02-01T05:44:57;2.90;1.00
6443;DHT22;3254;47.372;8.512;2023-02-01T05:47:23;2.80;1.00
6443;DHT22;3254;47.372;8.512;2023-02-01T05:49:49;2.90;1.00
6443;DHT22;3254;47.372;8.512;2023-02-01T05:52:15;2.90;1.00
6443;DHT22;3254;47.372;8.512;2023-02-01T05:54:45;2.90;1.00
6443;DHT22;3254;47.372;8.512;2023-02-01T05:57:12;2.80;1.00
6443;DHT22;3254;47.372;8.512;2023-02-01T05:59:39;2.70;1.00
6443;DHT22;3254;47.372;8.512;2023-02-01T06:02:10;2.80;1.00
6443;DHT22;3254;47.372;8.512;2023-02-01T06:04:37;2.70;1.00
6443;DHT22;3254;47.372;8.512;2023-02-01T06:07:03;2.70;1.00
6443;DHT22;3254;47.372;8.512;2023-02-01T06:09:29;2.80;1.00
6443;DHT22;3254;47.372;8.512;2023-02-01T06:11:55;2.90;1.00
6443;DHT22;3254;47.372;8.512;2023-02-01T06:14:20;2.90;1.00
6443;DHT22;3254;47.372;8.512;2023-02-01T06:16:46;2.90;1.00
6443;DHT22;3254;47.372;8.512;2023-02-01T06:19:12;2.90;1.00
6443;DHT22;3254;47.372;8.512;2023-02-01T06:21:39;2.90;1.00
6443;DHT22;3254;47.372;8.512;2023-02-01T06:24:05;2.80;1.00
6443;DHT22;3254;47.372;8.512;2023-02-01T06:26:32;2.80;1.00
6443;DHT22;3254;47.372;8.512;2023-02-01T06:28:58;2.80;1.00
6443;DHT22;3254;47.372;8.512;2023-02-01T06:31:24;2.70;1.00
6443;DHT22;3254;47.372;8.512;2023-02-01T06:33:51;2.70;1.00
6443;DHT22;3254;47.372;8.512;2023-02-01T06:36:17;2.60;1.00
6443;DHT22;3254;47.372;8.512;2023-02-01T06:38:47;2.70;1.00
6443;DHT22;3254;47.372;8.512;2023-02-01T06:41:15;2.60;1.00
6443;DHT22;3254;47.372;8.512;2023-02-01T06:43:41;2.50;1.00
6443;DHT22;3254;47.372;8.512;2023-02-01T06:46:09;2.50;1.00
6443;DHT22;3254;47.372;8.512;2023-02-01T06:48:37;2.60;1.00
6443;DHT22;3254;47.372;8.512;2023-02-01T06:51:10;2.80;1.00
6443;DHT22;3254;47.372;8.512;2023-02-01T06:53:41;2.90;1.00
6443;DHT22;3254;47.372;8.512;2023-02-01T06:56:09;3.00;1.00
6443;DHT22;3254;47.372;8.512;2023-02-01T06:58:34;3.10;1.00
6443;DHT22;3254;47.372;8.512;2023-02-01T07:01:08;3.10;1.00
6443;DHT22;3254;47.372;8.512;2023-02-01T07:03:34;3.20;1.00
6443;DHT22;3254;47.372;8.512;2023-02-01T07:06:01;3.20;1.00
6443;DHT22;3254;47.372;8.512;2023-02-01T07:08:27;3.20;1.00
6443;DHT22;3254;47.372;8.512;2023-02-01T07:10:53;3.30;1.00
6443;DHT22;3254;47.372;8.512;2023-02-01T07:13:19;3.30;1.00
6443;DHT22;3254;47.372;8.512;2023-02-01T07:15:45;3.20;1.00
6443;DHT22;3254;47.372;8.512;2023-02-01T07:18:13;3.20;1.00
6443;DHT22;3254;47.372;8.512;2023-02-01T07:20:40;3.20;1.00
6443;DHT22;3254;47.372;8.512;2023-02-01T07:23:08;3.30;1.00
6443;DHT22;3254;47.372;8.512;2023-02-01T07:25:35;3.20;1.00
6443;DHT22;3254;47.372;8.512;2023-02-01T07:28:00;3.10;1.00
6443;DHT22;3254;47.372;8.512;2023-02-01T07:30:26;3.00;1.00
6443;DHT22;3254;47.372;8.512;2023-02-01T07:32:51;2.90;1.00
6443;DHT22;3254;47.372;8.512;2023-02-01T07:35:17;2.80;1.00
6443;DHT22;3254;47.372;8.512;2023-02-01T07:37:43;2.80;1.00
6443;DHT22;3254;47.372;8.512;2023-02-01T07:40:11;2.70;1.00
6443;DHT22;3254;47.372;8.512;2023-02-01T07:42:37;2.70;1.00
6443;DHT22;3254;47.372;8.512;2023-02-01T07:45:04;2.60;1.00
6443;DHT22;3254;47.372;8.512;2023-02-01T07:47:30;2.60;1.00
6443;DHT22;3254;47.372;8.512;2023-02-01T07:49:55;2.50;1.00
6443;DHT22;3254;47.372;8.512;2023-02-01T07:52:21;2.60;1.00
6443;DHT22;3254;47.372;8.512;2023-02-01T07:54:46;2.60;1.00
6443;DHT22;3254;47.372;8.512;2023-02-01T07:57:12;2.60;1.00
6443;DHT22;3254;47.372;8.512;2023-02-01T07:59:40;2.70;1.00
6443;DHT22;3254;47.372;8.512;2023-02-01T08:02:25;2.70;1.00
6443;DHT22;3254;47.372;8.512;2023-02-01T08:04:51;2.70;1.00
6443;DHT22;3254;47.372;8.512;2023-02-01T08:07:17;2.80;1.00
6443;DHT22;3254;47.372;8.512;2023-02-01T08:09:44;2.80;1.00
6443;DHT22;3254;47.372;8.512;2023-02-01T08:12:11;2.80;1.00
6443;DHT22;3254;47.372;8.512;2023-02-01T08:14:37;2.80;1.00
6443;DHT22;3254;47.372;8.512;2023-02-01T08:17:02;2.90;1.00
6443;DHT22;3254;47.372;8.512;2023-02-01T08:19:30;2.90;1.00
6443;DHT22;3254;47.372;8.512;2023-02-01T08:21:56;3.00;1.00
6443;DHT22;3254;47.372;8.512;2023-02-01T08:24:24;3.00;1.00
6443;DHT22;3254;47.372;8.512;2023-02-01T08:26:51;2.90;1.00
6443;DHT22;3254;47.372;8.512;2023-02-01T08:29:17;2.90;1.00
6443;DHT22;3254;47.372;8.512;2023-02-01T08:31:42;3.00;1.00
6443;DHT22;3254;47.372;8.512;2023-02-01T08:34:09;3.00;1.00
6443;DHT22;3254;47.372;8.512;2023-02-01T08:36:35;3.00;1.00
6443;DHT22;3254;47.372;8.512;2023-02-01T08:39:01;3.10;1.00
6443;DHT22;3254;47.372;8.512;2023-02-01T08:41:29;3.10;1.00
6443;DHT22;3254;47.372;8.512;2023-02-01T08:43:56;3.20;1.00
6443;DHT22;3254;47.372;8.512;2023-02-01T08:46:25;3.30;1.00
6443;DHT22;3254;47.372;8.512;2023-02-01T08:48:51;3.40;1.00
6443;DHT22;3254;47.372;8.512;2023-02-01T08:51:19;3.40;1.00
6443;DHT22;3254;47.372;8.512;2023-02-01T08:53:45;3.50;1.00
6443;DHT22;3254;47.372;8.512;2023-02-01T08:56:14;3.50;1.00
6443;DHT22;3254;47.372;8.512;2023-02-01T08:58:40;3.50;1.00
6443;DHT22;3254;47.372;8.512;2023-02-01T09:01:08;3.50;1.00
6443;DHT22;3254;47.372;8.512;2023-02-01T09:03:34;3.60;1.00
6443;DHT22;3254;47.372;8.512;2023-02-01T09:06:05;3.80;1.00
6443;DHT22;3254;47.372;8.512;2023-02-01T09:08:31;3.80;1.00
6443;DHT22;3254;47.372;8.512;2023-02-01T09:11:03;3.90;1.00
6443;DHT22;3254;47.372;8.512;2023-02-01T09:13:29;4.00;1.00
6443;DHT22;3254;47.372;8.512;2023-02-01T09:15:55;4.10;1.00
6443;DHT22;3254;47.372;8.512;2023-02-01T09:18:22;4.20;1.00
6443;DHT22;3254;47.372;8.512;2023-02-01T09:20:47;4.30;1.00
6443;DHT22;3254;47.372;8.512;2023-02-01T09:23:13;4.40;1.00
6443;DHT22;3254;47.372;8.512;2023-02-01T09:25:40;4.40;1.00
6443;DHT22;3254;47.372;8.512;2023-02-01T09:28:08;4.50;1.00
6443;DHT22;3254;47.372;8.512;2023-02-01T09:30:36;4.60;1.00
6443;DHT22;3254;47.372;8.512;2023-02-01T09:33:03;4.60;1.00
6443;DHT22;3254;47.372;8.512;2023-02-01T09:35:31;4.80;1.00
6443;DHT22;3254;47.372;8.512;2023-02-01T09:37:58;4.90;1.00
6443;DHT22;3254;47.372;8.512;2023-02-01T09:40:27;4.90;1.00
6443;DHT22;3254;47.372;8.512;2023-02-01T09:43:25;4.90;1.00
6443;DHT22;3254;47.372;8.512;2023-02-01T09:46:23;5.00;1.00
6443;DHT22;3254;47.372;8.512;2023-02-01T09:48:53;5.10;1.00
6443;DHT22;3254;47.372;8.512;2023-02-01T09:51:23;5.20;1.00
6443;DHT22;3254;47.372;8.512;2023-02-01T09:54:04;5.20;1.00
6443;DHT22;3254;47.372;8.512;2023-02-01T09:56:39;5.20;1.00
6443;DHT22;3254;47.372;8.512;2023-02-01T09:59:28;5.40;1.00
6443;DHT22;3254;47.372;8.512;2023-02-01T10:01:57;5.40;1.00
6443;DHT22;3254;47.372;8.512;2023-02-01T10:04:25;5.30;1.00
6443;DHT22;3254;47.372;8.512;2023-02-01T10:07:15;5.40;1.00
6443;DHT22;3254;47.372;8.512;2023-02-01T10:10:01;5.50;1.00
6443;DHT22;3254;47.372;8.512;2023-02-01T10:21:28;5.50;1.00
6443;DHT22;3254;47.372;8.512;2023-02-01T10:27:12;5.50;1.00
6443;DHT22;3254;47.372;8.512;2023-02-01T10:29:41;5.70;1.00
6443;DHT22;3254;47.372;8.512;2023-02-01T10:32:14;5.80;1.00
6443;DHT22;3254;47.372;8.512;2023-02-01T10:34:41;5.90;1.00
6443;DHT22;3254;47.372;8.512;2023-02-01T10:37:31;5.90;1.00
6443;DHT22;3254;47.372;8.512;2023-02-01T10:40:00;6.20;1.00
6443;DHT22;3254;47.372;8.512;2023-02-01T10:42:28;6.70;1.00
6443;DHT22;3254;47.372;8.512;2023-02-01T10:44:58;7.10;1.00
6443;DHT22;3254;47.372;8.512;2023-02-01T10:47:26;7.70;1.00
6443;DHT22;3254;47.372;8.512;2023-02-01T10:52:57;8.60;1.00
6443;DHT22;3254;47.372;8.512;2023-02-01T10:58:06;7.90;1.00
6443;DHT22;3254;47.372;8.512;2023-02-01T11:00:43;7.40;1.00
6443;DHT22;3254;47.372;8.512;2023-02-01T11:08:57;6.60;1.00
6443;DHT22;3254;47.372;8.512;2023-02-01T11:11:23;6.60;1.00
6443;DHT22;3254;47.372;8.512;2023-02-01T11:14:20;7.20;1.00
6443;DHT22;3254;47.372;8.512;2023-02-01T11:16:59;8.40;1.00
6443;DHT22;3254;47.372;8.512;2023-02-01T11:19:26;9.10;1.00
6443;DHT22;3254;47.372;8.512;2023-02-01T11:21:59;8.50;1.00
6443;DHT22;3254;47.372;8.512;2023-02-01T11:24:34;7.60;1.00
6443;DHT22;3254;47.372;8.512;2023-02-01T11:27:03;7.40;1.00
6443;DHT22;3254;47.372;8.512;2023-02-01T11:29:36;7.00;1.00
6443;DHT22;3254;47.372;8.512;2023-02-01T11:32:03;6.90;1.00
6443;DHT22;3254;47.372;8.512;2023-02-01T11:34:46;7.30;1.00
6443;DHT22;3254;47.372;8.512;2023-02-01T11:37:19;8.20;1.00
6443;DHT22;3254;47.372;8.512;2023-02-01T11:39:58;8.90;1.00
6443;DHT22;3254;47.372;8.512;2023-02-01T11:42:25;9.00;1.00
6443;DHT22;3254;47.372;8.512;2023-02-01T11:45:20;9.50;1.00
6443;DHT22;3254;47.372;8.512;2023-02-01T11:47:46;9.50;1.00
6443;DHT22;3254;47.372;8.512;2023-02-01T11:50:19;9.00;1.00
6443;DHT22;3254;47.372;8.512;2023-02-01T11:56:11;8.60;1.00
6443;DHT22;3254;47.372;8.512;2023-02-01T11:58:52;8.80;1.00
6443;DHT22;3254;47.372;8.512;2023-02-01T12:07:55;8.30;1.00
6443;DHT22;3254;47.372;8.512;2023-02-01T12:10:45;7.40;1.00
6443;DHT22;3254;47.372;8.512;2023-02-01T12:21:41;8.60;1.00
6443;DHT22;3254;47.372;8.512;2023-02-01T12:24:16;8.80;1.00
6443;DHT22;3254;47.372;8.512;2023-02-01T12:32:51;8.50;1.00
6443;DHT22;3254;47.372;8.512;2023-02-01T12:38:20;9.70;1.00
6443;DHT22;3254;47.372;8.512;2023-02-01T12:41:04;10.10;1.00
6443;DHT22;3254;47.372;8.512;2023-02-01T12:46:32;9.20;1.00
6443;DHT22;3254;47.372;8.512;2023-02-01T12:49:22;9.80;1.00
6443;DHT22;3254;47.372;8.512;2023-02-01T12:51:54;9.40;1.00
6443;DHT22;3254;47.372;8.512;2023-02-01T12:54:57;9.30;1.00
6443;DHT22;3254;47.372;8.512;2023-02-01T12:57:37;9.10;1.00
6443;DHT22;3254;47.372;8.512;2023-02-01T13:00:37;8.70;1.00
6443;DHT22;3254;47.372;8.512;2023-02-01T13:11:29;10.40;1.00
6443;DHT22;3254;47.372;8.512;2023-02-01T13:14:24;10.60;1.00
6443;DHT22;3254;47.372;8.512;2023-02-01T13:16:56;11.40;1.00
6443;DHT22;3254;47.372;8.512;2023-02-01T13:22:41;10.30;1.00
6443;DHT22;3254;47.372;8.512;2023-02-01T13:27:36;9.10;1.00
6443;DHT22;3254;47.372;8.512;2023-02-01T13:30:20;8.60;1.00
6443;DHT22;3254;47.372;8.512;2023-02-01T13:41:41;10.50;1.00
6443;DHT22;3254;47.372;8.512;2023-02-01T13:44:14;10.70;1.00
6443;DHT22;3254;47.372;8.512;2023-02-01T13:46:44;11.20;1.00
6443;DHT22;3254;47.372;8.512;2023-02-01T13:49:32;11.30;1.00
6443;DHT22;3254;47.372;8.512;2023-02-01T13:52:02;10.80;1.00
6443;DHT22;3254;47.372;8.512;2023-02-01T13:54:37;10.80;1.00
6443;DHT22;3254;47.372;8.512;2023-02-01T13:57:04;10.10;1.00
6443;DHT22;3254;47.372;8.512;2023-02-01T14:05:04;9.00;1.00
6443;DHT22;3254;47.372;8.512;2023-02-01T14:07:31;8.90;1.00
6443;DHT22;3254;47.372;8.512;2023-02-01T14:09:57;8.80;1.00
6443;DHT22;3254;47.372;8.512;2023-02-01T14:12:46;8.80;1.00
6443;DHT22;3254;47.372;8.512;2023-02-01T14:15:27;8.50;1.00
6443;DHT22;3254;47.372;8.512;2023-02-01T14:17:53;8.20;1.00
6443;DHT22;3254;47.372;8.512;2023-02-01T14:20:41;7.90;1.00
6443;DHT22;3254;47.372;8.512;2023-02-01T14:23:17;7.70;1.00
6443;DHT22;3254;47.372;8.512;2023-02-01T14:25:45;7.60;1.00
6443;DHT22;3254;47.372;8.512;2023-02-01T14:28:25;7.50;1.00
6443;DHT22;3254;47.372;8.512;2023-02-01T14:30:53;7.50;1.00
6443;DHT22;3254;47.372;8.512;2023-02-01T14:33:25;7.60;1.00
6443;DHT22;3254;47.372;8.512;2023-02-01T14:38:31;7.30;1.00
6443;DHT22;3254;47.372;8.512;2023-02-01T14:41:12;7.20;1.00
6443;DHT22;3254;47.372;8.512;2023-02-01T14:47:04;7.00;1.00
6443;DHT22;3254;47.372;8.512;2023-02-01T14:49:32;7.10;1.00
6443;DHT22;3254;47.372;8.512;2023-02-01T14:52:02;7.10;1.00
6443;DHT22;3254;47.372;8.512;2023-02-01T14:54:31;6.90;1.00
6443;DHT22;3254;47.372;8.512;2023-02-01T14:56:58;6.90;1.00
6443;DHT22;3254;47.372;8.512;2023-02-01T14:59:25;6.90;1.00
6443;DHT22;3254;47.372;8.512;2023-02-01T15:01:58;6.90;1.00
6443;DHT22;3254;47.372;8.512;2023-02-01T15:04:27;6.90;1.00
6443;DHT22;3254;47.372;8.512;2023-02-01T15:06:57;6.90;1.00
6443;DHT22;3254;47.372;8.512;2023-02-01T15:09:38;6.90;1.00
6443;DHT22;3254;47.372;8.512;2023-02-01T15:17:30;6.90;1.00
6443;DHT22;3254;47.372;8.512;2023-02-01T15:20:21;6.90;1.00
6443;DHT22;3254;47.372;8.512;2023-02-01T15:22:59;6.90;1.00
6443;DHT22;3254;47.372;8.512;2023-02-01T15:25:33;7.10;1.00
6443;DHT22;3254;47.372;8.512;2023-02-01T15:28:02;7.60;1.00
6443;DHT22;3254;47.372;8.512;2023-02-01T15:30:30;7.90;1.00
6443;DHT22;3254;47.372;8.512;2023-02-01T15:35:41;7.50;1.00
6443;DHT22;3254;47.372;8.512;2023-02-01T15:43:26;7.00;1.00
6443;DHT22;3254;47.372;8.512;2023-02-01T15:45:59;7.00;1.00
6443;DHT22;3254;47.372;8.512;2023-02-01T15:48:32;6.90;1.00
6443;DHT22;3254;47.372;8.512;2023-02-01T15:51:00;6.80;1.00
6443;DHT22;3254;47.372;8.512;2023-02-01T15:53:26;6.60;1.00
6443;DHT22;3254;47.372;8.512;2023-02-01T15:55:59;6.50;1.00
6443;DHT22;3254;47.372;8.512;2023-02-01T15:58:26;6.40;1.00
6443;DHT22;3254;47.372;8.512;2023-02-01T16:01:03;6.30;1.00
6443;DHT22;3254;47.372;8.512;2023-02-01T16:03:42;6.20;1.00
6443;DHT22;3254;47.372;8.512;2023-02-01T16:08:52;6.20;1.00
6443;DHT22;3254;47.372;8.512;2023-02-01T16:11:27;6.20;1.00
6443;DHT22;3254;47.372;8.512;2023-02-01T16:13:58;6.20;1.00
6443;DHT22;3254;47.372;8.512;2023-02-01T16:16:25;6.10;1.00
6443;DHT22;3254;47.372;8.512;2023-02-01T16:18:53;6.10;1.00
6443;DHT22;3254;47.372;8.512;2023-02-01T16:21:19;6.00;1.00
6443;DHT22;3254;47.372;8.512;2023-02-01T16:23:49;6.00;1.00
6443;DHT22;3254;47.372;8.512;2023-02-01T16:26:15;6.00;1.00
6443;DHT22;3254;47.372;8.512;2023-02-01T16:28:41;6.00;1.00
6443;DHT22;3254;47.372;8.512;2023-02-01T16:31:25;5.90;1.00
6443;DHT22;3254;47.372;8.512;2023-02-01T16:33:52;5.90;1.00
6443;DHT22;3254;47.372;8.512;2023-02-01T16:36:18;5.90;1.00
6443;DHT22;3254;47.372;8.512;2023-02-01T16:38:45;5.90;1.00
6443;DHT22;3254;47.372;8.512;2023-02-01T16:41:14;5.90;1.00
6443;DHT22;3254;47.372;8.512;2023-02-01T16:43:41;5.80;1.00
6443;DHT22;3254;47.372;8.512;2023-02-01T16:46:16;5.80;1.00
6443;DHT22;3254;47.372;8.512;2023-02-01T16:48:54;5.80;1.00
6443;DHT22;3254;47.372;8.512;2023-02-01T16:51:20;5.80;1.00
6443;DHT22;3254;47.372;8.512;2023-02-01T16:53:46;5.70;1.00
6443;DHT22;3254;47.372;8.512;2023-02-01T16:56:21;5.70;1.00
6443;DHT22;3254;47.372;8.512;2023-02-01T16:58:48;5.60;1.00
6443;DHT22;3254;47.372;8.512;2023-02-01T17:01:17;5.60;1.00
6443;DHT22;3254;47.372;8.512;2023-02-01T17:03:45;5.60;1.00
6443;DHT22;3254;47.372;8.512;2023-02-01T17:06:13;5.60;1.00
6443;DHT22;3254;47.372;8.512;2023-02-01T17:08:42;5.60;1.00
6443;DHT22;3254;47.372;8.512;2023-02-01T17:11:11;5.60;1.00
6443;DHT22;3254;47.372;8.512;2023-02-01T17:13:38;5.60;1.00
6443;DHT22;3254;47.372;8.512;2023-02-01T17:16:16;5.60;1.00
6443;DHT22;3254;47.372;8.512;2023-02-01T17:21:20;5.70;1.00
6443;DHT22;3254;47.372;8.512;2023-02-01T17:23:46;5.70;1.00
6443;DHT22;3254;47.372;8.512;2023-02-01T17:26:12;5.70;1.00
6443;DHT22;3254;47.372;8.512;2023-02-01T17:28:37;5.70;1.00
6443;DHT22;3254;47.372;8.512;2023-02-01T17:31:04;5.70;1.00
6443;DHT22;3254;47.372;8.512;2023-02-01T17:33:32;5.70;1.00
6443;DHT22;3254;47.372;8.512;2023-02-01T17:35:59;5.80;1.00
6443;DHT22;3254;47.372;8.512;2023-02-01T17:38:24;5.70;1.00
6443;DHT22;3254;47.372;8.512;2023-02-01T17:40:50;5.70;1.00
6443;DHT22;3254;47.372;8.512;2023-02-01T17:43:21;5.80;1.00
6443;DHT22;3254;47.372;8.512;2023-02-01T17:45:51;5.70;1.00
6443;DHT22;3254;47.372;8.512;2023-02-01T17:48:21;5.70;1.00
6443;DHT22;3254;47.372;8.512;2023-02-01T17:50:48;5.70;1.00
6443;DHT22;3254;47.372;8.512;2023-02-01T17:53:18;5.70;1.00
6443;DHT22;3254;47.372;8.512;2023-02-01T17:55:49;5.70;1.00
6443;DHT22;3254;47.372;8.512;2023-02-01T17:58:17;5.70;1.00
6443;DHT22;3254;47.372;8.512;2023-02-01T18:00:43;5.70;1.00
6443;DHT22;3254;47.372;8.512;2023-02-01T18:03:29;5.60;1.00
6443;DHT22;3254;47.372;8.512;2023-02-01T18:05:57;5.60;1.00
6443;DHT22;3254;47.372;8.512;2023-02-01T18:08:26;5.60;1.00
6443;DHT22;3254;47.372;8.512;2023-02-01T18:10:54;5.60;1.00
6443;DHT22;3254;47.372;8.512;2023-02-01T18:13:21;5.60;1.00
6443;DHT22;3254;47.372;8.512;2023-02-01T18:15:47;5.60;1.00
6443;DHT22;3254;47.372;8.512;2023-02-01T18:18:12;5.60;1.00
6443;DHT22;3254;47.372;8.512;2023-02-01T18:20:41;5.60;1.00
6443;DHT22;3254;47.372;8.512;2023-02-01T18:23:18;5.60;1.00
6443;DHT22;3254;47.372;8.512;2023-02-01T18:25:45;5.60;1.00
6443;DHT22;3254;47.372;8.512;2023-02-01T18:28:14;5.60;1.00
6443;DHT22;3254;47.372;8.512;2023-02-01T18:30:41;5.60;1.00
6443;DHT22;3254;47.372;8.512;2023-02-01T18:33:13;5.60;1.00
6443;DHT22;3254;47.372;8.512;2023-02-01T18:35:39;5.60;1.00
6443;DHT22;3254;47.372;8.512;2023-02-01T18:38:05;5.60;1.00
6443;DHT22;3254;47.372;8.512;2023-02-01T18:40:33;5.60;1.00
6443;DHT22;3254;47.372;8.512;2023-02-01T18:43:00;5.60;1.00
6443;DHT22;3254;47.372;8.512;2023-02-01T18:45:37;5.60;1.00
6443;DHT22;3254;47.372;8.512;2023-02-01T18:48:05;5.50;1.00
6443;DHT22;3254;47.372;8.512;2023-02-01T18:50:35;5.50;1.00
6443;DHT22;3254;47.372;8.512;2023-02-01T18:53:02;5.50;1.00
6443;DHT22;3254;47.372;8.512;2023-02-01T18:55:33;5.40;1.00
6443;DHT22;3254;47.372;8.512;2023-02-01T18:58:03;5.40;1.00
6443;DHT22;3254;47.372;8.512;2023-02-01T19:00:29;5.40;1.00
6443;DHT22;3254;47.372;8.512;2023-02-01T19:02:55;5.40;1.00
6443;DHT22;3254;47.372;8.512;2023-02-01T19:05:21;5.40;1.00
6443;DHT22;3254;47.372;8.512;2023-02-01T19:07:47;5.40;1.00
6443;DHT22;3254;47.372;8.512;2023-02-01T19:10:18;5.40;1.00